Time;durP1;ratioP1;P1;durP2;ratioP2;P2;SDS_P1;SDS_P2;PMS_P1;PMS_P2;Temp;Humidity;BMP_temperature;BMP_pressure;BME280_temperature;BME280_humidity;BME280_pressure;Samples;Min_cycle;Max_cycle;Signal;HPM_P1;HPM_P2
2022/12/25 00:01:40;;;;;;;;;;;;;;;3.78;100.00;101305.75;5086144;28;19939;-76
2022/12/25 00:04:06;;;;;;;;;;;;;;;3.78;100.00;101305.75;5087142;28;19927;-76
2022/12/25 00:06:31;;;;;;;;;;;;;;;3.78;100.00;101298.78;5086578;28;20627;-75
2022/12/25 00:08:56;;;;;;;;;;;;;;;3.80;100.00;101288.25;5052239;28;19931;-76
2022/12/25 00:11:22;;;;;;;;;;;;;;;3.79;100.00;101291.78;5086902;28;20748;-75
2022/12/25 00:13:47;;;;;;;;;;;;;;;3.78;100.00;101290.03;5086707;28;19924;-76
2022/12/25 00:16:17;;;;;;;;;;;;;;;3.79;100.00;101291.78;5068428;28;19924;-76
2022/12/25 00:18:43;;;;;;;;;;;;;;;3.82;100.00;101296.13;5086054;28;19950;-75
2022/12/25 00:21:09;;;;;;;;;;;;;;;3.83;100.00;101285.63;5086358;28;20378;-75
2022/12/25 00:23:34;;;;;;;;;;;;;;;3.84;100.00;101295.22;5043597;28;19928;-75
2022/12/25 00:26:02;;;;;;;;;;;;;;;3.85;100.00;101293.44;5068770;28;19943;-74
2022/12/25 00:28:28;;;;;;;;;;;;;;;3.86;100.00;101287.34;5068664;28;19950;-75
2022/12/25 00:30:53;;;;;;;;;;;;;;;3.87;100.00;101282.06;5068838;28;20481;-75
2022/12/25 00:33:18;;;;;;;;;;;;;;;3.87;100.00;101283.84;5086797;28;20642;-76
2022/12/25 00:35:44;;;;;;;;;;;;;;;3.87;100.00;101279.47;5068609;28;19928;-74
2022/12/25 00:38:09;;;;;;;;;;;;;;;3.87;100.00;101279.47;5051619;28;20382;-75
2022/12/25 00:40:42;;;;;;;;;;;;;;;3.87;100.00;101274.22;5068034;28;19949;-75
2022/12/25 00:43:08;;;;;;;;;;;;;;;3.87;100.00;101273.38;5068330;28;19977;-75
2022/12/25 00:45:33;;;;;;;;;;;;;;;3.86;100.00;101274.25;5067743;28;22041;-77
2022/12/25 00:47:58;;;;;;;;;;;;;;;3.85;100.00;101281.25;5085972;28;19924;-76
2022/12/25 00:50:24;;;;;;;;;;;;;;;3.84;100.00;101284.75;5086667;28;19928;-75
2022/12/25 00:52:49;;;;;;;;;;;;;;;3.83;100.00;101285.63;5086398;28;20678;-76
2022/12/25 00:55:15;;;;;;;;;;;;;;;3.82;100.00;101280.41;5085683;28;19981;-76
2022/12/25 00:57:40;;;;;;;;;;;;;;;3.80;100.00;101277.78;5085014;28;19928;-76
2022/12/25 01:00:06;;;;;;;;;;;;;;;3.78;100.00;101287.41;5085180;28;19942;-76
2022/12/25 01:02:31;;;;;;;;;;;;;;;3.78;100.00;101293.53;5085738;28;19947;-74
2022/12/25 01:04:57;;;;;;;;;;;;;;;3.78;100.00;101300.53;5086098;28;20022;-75
2022/12/25 01:07:24;;;;;;;;;;;;;;;3.78;100.00;101290.94;5085446;28;19971;-76
2022/12/25 01:12:34;;;;;;;;;;;;;;;3.82;100.00;101312.72;5084565;28;19931;-76
2022/12/25 01:15:00;;;;;;;;;;;;;;;3.81;100.00;101305.72;5067667;28;19935;-74
2022/12/25 01:17:25;;;;;;;;;;;;;;;3.84;100.00;101308.31;5086026;28;20345;-75
2022/12/25 01:19:50;;;;;;;;;;;;;;;3.86;100.00;101303.06;5085089;28;20414;-76
2022/12/25 01:22:16;;;;;;;;;;;;;;;3.85;100.00;101304.81;5085684;28;19936;-75
2022/12/25 01:24:42;;;;;;;;;;;;;;;3.88;100.00;101311.78;5085852;28;19935;-76
2022/12/25 01:27:08;;;;;;;;;;;;;;;3.88;100.00;101317.88;5067724;28;19936;-76
2022/12/25 01:29:33;;;;;;;;;;;;;;;3.90;100.00;101318.75;5086182;28;19932;-75
2022/12/25 01:31:58;;;;;;;;;;;;;;;3.94;100.00;101319.56;5085768;28;19934;-76
2022/12/25 01:34:24;;;;;;;;;;;;;;;3.97;100.00;101319.53;5085368;28;19932;-75
2022/12/25 01:36:49;;;;;;;;;;;;;;;4.02;100.00;101324.72;5066767;28;19935;-75
2022/12/25 01:39:15;;;;;;;;;;;;;;;4.06;100.00;101327.31;5085024;28;19931;-74
2022/12/25 01:41:40;;;;;;;;;;;;;;;4.13;100.00;101320.25;5065789;28;20430;-76
2022/12/25 01:44:14;;;;;;;;;;;;;;;4.16;100.00;101320.22;5085719;28;19939;-75
2022/12/25 01:46:40;;;;;;;;;;;;;;;4.24;100.00;101319.28;5083870;28;19950;-76
2022/12/25 01:49:10;;;;;;;;;;;;;;;4.29;100.00;101313.06;5084426;28;20631;-76
2022/12/25 01:51:38;;;;;;;;;;;;;;;4.36;100.00;101319.09;5066689;28;20407;-76
2022/12/25 01:54:05;;;;;;;;;;;;;;;4.43;100.00;101319.91;5085276;28;19928;-76
2022/12/25 01:56:31;;;;;;;;;;;;;;;4.51;100.00;101306.72;5085271;28;20634;-76
2022/12/25 01:58:56;;;;;;;;;;;;;;;4.57;100.00;101306.66;5084213;28;19984;-76
2022/12/25 02:01:21;;;;;;;;;;;;;;;4.64;100.00;101305.66;5084141;28;19939;-76
2022/12/25 02:03:47;;;;;;;;;;;;;;;4.70;100.00;101318.72;5066397;28;20029;-75
2022/12/25 02:06:12;;;;;;;;;;;;;;;4.77;100.00;101316.84;5085074;28;20849;-75
2022/12/25 02:08:38;;;;;;;;;;;;;;;4.83;100.00;101308.03;5065822;28;19963;-76
2022/12/25 02:11:03;;;;;;;;;;;;;;;4.86;100.00;101308.00;5066937;28;20413;-76
2022/12/25 02:13:29;;;;;;;;;;;;;;;4.89;100.00;101306.19;5085117;28;19967;-76
2022/12/25 02:15:59;;;;;;;;;;;;;;;4.93;100.00;101311.38;5085191;28;20307;-76
2022/12/25 02:18:34;;;;;;;;;;;;;;;4.96;100.00;101320.09;5049037;28;19935;-76
2022/12/25 02:21:03;;;;;;;;;;;;;;;5.00;100.00;101319.16;5084341;28;19924;-76
2022/12/25 02:23:48;;;;;;;;;;;;;;;5.03;100.00;101313.00;5084206;28;20503;-76
2022/12/25 02:26:16;;;;;;;;;;;;;;;5.08;100.00;101320.81;5066512;28;19981;-76
2022/12/25 02:29:02;;;;;;;;;;;;;;;5.11;100.00;101299.75;5066467;28;19927;-76
2022/12/25 02:31:41;;;;;;;;;;;;;;;5.14;100.00;101299.72;5065741;28;19977;-76
2022/12/25 02:34:29;;;;;;;;;;;;;;;5.18;100.00;101304.03;5067118;28;19928;-76
2022/12/25 02:37:06;;;;;;;;;;;;;;;5.21;100.00;101305.72;5066206;28;19924;-76
2022/12/25 02:42:21;;;;;;;;;;;;;;;5.28;100.00;101318.75;5084474;28;19927;-76
2022/12/25 03:06:54;;;;;;;;;;;;;;;5.46;100.00;101284.31;5065962;28;20008;-76
2022/12/25 03:12:07;;;;;;;;;;;;;;;5.47;100.00;101276.44;5068925;28;19928;-76
2022/12/25 03:17:17;;;;;;;;;;;;;;;5.51;100.00;101264.97;5068122;28;20337;-76
2022/12/25 03:27:56;;;;;;;;;;;;;;;5.57;100.00;101249.09;5072219;28;20516;-76
2022/12/25 03:33:29;;;;;;;;;;;;;;;5.63;100.00;101255.13;5057743;28;19959;-76
2022/12/25 03:36:03;;;;;;;;;;;;;;;5.66;100.00;101244.59;5087669;28;19993;-76
2022/12/25 04:36:45;;;;;;;;;;;;;;;5.97;100.00;101215.06;5086239;28;19928;-76
2022/12/25 04:39:11;;;;;;;;;;;;;;;5.96;100.00;101218.59;5085683;28;20382;-76
2022/12/25 04:41:36;;;;;;;;;;;;;;;5.96;100.00;101229.13;5085926;28;19950;-77
2022/12/25 04:44:01;;;;;;;;;;;;;;;5.94;100.00;101223.03;5085681;28;20156;-76
2022/12/25 04:46:27;;;;;;;;;;;;;;;5.96;100.00;101218.59;5085836;28;19985;-76
2022/12/25 04:48:52;;;;;;;;;;;;;;;5.95;100.00;101216.88;5053513;28;19941;-75
2022/12/25 04:51:19;;;;;;;;;;;;;;;5.96;100.00;101229.13;5068478;28;19924;-77
2022/12/25 04:53:45;;;;;;;;;;;;;;;5.95;100.00;101227.38;5086548;28;20390;-76
2022/12/25 04:56:11;;;;;;;;;;;;;;;5.95;100.00;101227.38;5067812;28;20378;-76
2022/12/25 04:58:36;;;;;;;;;;;;;;;5.93;100.00;101227.41;5068310;28;19924;-76
2022/12/25 05:01:02;;;;;;;;;;;;;;;5.93;100.00;101229.16;5068150;28;20364;-76
2022/12/25 05:03:28;;;;;;;;;;;;;;;5.91;100.00;101231.84;5085688;28;19923;-77
2022/12/25 05:05:53;;;;;;;;;;;;;;;5.92;100.00;101227.44;5068386;28;19962;-77
2022/12/25 05:08:19;;;;;;;;;;;;;;;5.92;100.00;101219.56;5086462;28;19939;-76
2022/12/25 05:10:44;;;;;;;;;;;;;;;5.94;100.00;101226.50;5086299;28;20432;-77
2022/12/25 05:13:09;;;;;;;;;;;;;;;5.95;100.00;101222.13;5066913;28;19928;-76
2022/12/25 05:15:37;;;;;;;;;;;;;;;5.96;100.00;101235.25;5085657;28;20673;-76
2022/12/25 05:18:03;;;;;;;;;;;;;;;5.99;100.00;101234.28;5066869;28;19924;-76
2022/12/25 05:20:28;;;;;;;;;;;;;;;6.00;100.00;101225.53;5084782;28;19930;-76
2022/12/25 05:22:54;;;;;;;;;;;;;;;6.03;100.00;101225.50;5085962;28;19936;-76
2022/12/25 05:25:19;;;;;;;;;;;;;;;6.03;100.00;101236.00;5074161;28;20018;-76
2022/12/25 05:27:45;;;;;;;;;;;;;;;6.05;100.00;101228.94;5085453;28;19928;-76
2022/12/25 05:30:10;;;;;;;;;;;;;;;6.06;100.00;101225.41;5067911;28;19932;-76
2022/12/25 05:32:35;;;;;;;;;;;;;;;6.07;100.00;101219.28;5084767;28;19928;-77
2022/12/25 05:35:01;;;;;;;;;;;;;;;6.08;100.00;101223.66;5084950;28;20340;-76
2022/12/25 05:37:26;;;;;;;;;;;;;;;6.10;100.00;101227.09;5084361;28;19934;-76
2022/12/25 05:39:52;;;;;;;;;;;;;;;6.11;100.00;101207.78;5067358;28;20191;-76
2022/12/25 05:42:17;;;;;;;;;;;;;;;6.13;100.00;101215.66;5085531;28;19924;-76
2022/12/25 05:44:42;;;;;;;;;;;;;;;6.14;100.00;101204.25;5085336;28;20023;-76
2022/12/25 05:47:08;;;;;;;;;;;;;;;6.16;100.00;101204.22;5085717;28;20022;-76
2022/12/25 05:49:33;;;;;;;;;;;;;;;6.18;100.00;101210.31;5085019;28;19979;-76
2022/12/25 05:51:58;;;;;;;;;;;;;;;6.19;100.00;101205.00;5085025;28;19948;-77
2022/12/25 05:54:24;;;;;;;;;;;;;;;6.22;100.00;101204.09;5050136;28;20386;-76
2022/12/25 05:56:49;;;;;;;;;;;;;;;6.24;100.00;101197.03;5084749;28;19931;-75
2022/12/25 05:59:15;;;;;;;;;;;;;;;6.24;100.00;101197.03;5083953;28;19932;-76
2022/12/25 06:01:40;;;;;;;;;;;;;;;6.27;100.00;101193.47;5085343;28;19935;-76
2022/12/25 06:04:05;;;;;;;;;;;;;;;6.29;100.00;101189.91;5085180;28;19928;-76
2022/12/25 06:06:31;;;;;;;;;;;;;;;6.31;100.00;101197.78;5084823;28;20907;-76
2022/12/25 06:08:56;;;;;;;;;;;;;;;6.31;100.00;101193.38;5066519;28;19924;-76
2022/12/25 06:11:21;;;;;;;;;;;;;;;6.32;100.00;101181.94;5066537;28;19928;-76
2022/12/25 06:13:50;;;;;;;;;;;;;;;6.34;100.00;101174.91;5065389;28;19935;-76
2022/12/25 06:16:16;;;;;;;;;;;;;;;6.35;100.00;101178.38;5066755;28;19932;-76
2022/12/25 06:18:42;;;;;;;;;;;;;;;6.38;100.00;101183.59;5066319;28;19931;-76
2022/12/25 06:21:07;;;;;;;;;;;;;;;6.40;100.00;101181.78;5066283;28;19934;-76
2022/12/25 06:23:33;;;;;;;;;;;;;;;6.42;100.00;101177.34;5084036;28;19980;-76
2022/12/25 06:25:59;;;;;;;;;;;;;;;6.44;100.00;101179.94;5084487;28;19924;-77
2022/12/25 06:28:24;;;;;;;;;;;;;;;6.46;100.00;101175.50;5067179;28;19931;-77
2022/12/25 06:30:50;;;;;;;;;;;;;;;6.48;100.00;101171.09;5084011;28;19939;-77
2022/12/25 06:33:15;;;;;;;;;;;;;;;6.51;100.00;101181.53;5084380;28;20681;-77
2022/12/25 06:35:41;;;;;;;;;;;;;;;6.54;100.00;101183.22;5066653;28;19939;-77
2022/12/25 06:38:06;;;;;;;;;;;;;;;6.57;100.00;101183.13;5083900;28;19955;-77
2022/12/25 06:40:32;;;;;;;;;;;;;;;6.58;100.00;101177.84;5065456;28;20059;-76
2022/12/25 06:42:57;;;;;;;;;;;;;;;6.60;100.00;101173.41;5084344;28;19988;-76
2022/12/25 06:45:23;;;;;;;;;;;;;;;6.61;100.00;101166.41;5084787;28;20061;-76
2022/12/25 06:47:48;;;;;;;;;;;;;;;6.64;100.00;101164.56;5066248;28;20479;-77
2022/12/25 06:50:14;;;;;;;;;;;;;;;6.64;100.00;101159.28;5062721;28;20434;-76
2022/12/25 06:52:39;;;;;;;;;;;;;;;6.65;100.00;101163.66;5064563;28;19933;-76
2022/12/25 06:55:05;;;;;;;;;;;;;;;6.67;100.00;101153.09;5062902;28;19932;-76
2022/12/25 06:57:30;;;;;;;;;;;;;;;6.69;100.00;101158.34;5050450;28;19936;-77
2022/12/25 06:59:55;;;;;;;;;;;;;;;6.70;100.00;101160.06;5061633;28;20650;-77
2022/12/25 07:02:21;;;;;;;;;;;;;;;6.70;100.00;101155.63;5064065;28;19936;-77
2022/12/25 07:04:47;;;;;;;;;;;;;;;6.70;100.00;101167.94;5062641;28;19979;-77
2022/12/25 07:07:12;;;;;;;;;;;;;;;6.70;100.00;101162.69;5063661;28;19934;-77
2022/12/25 07:09:38;;;;;;;;;;;;;;;6.70;100.00;101158.28;5062469;28;20473;-78
2022/12/25 07:12:10;;;;;;;;;;;;;;;6.70;100.00;101158.28;5062439;28;19925;-76
2022/12/25 07:14:35;;;;;;;;;;;;;;;6.70;100.00;101152.16;5062337;28;19928;-77
2022/12/25 07:17:01;;;;;;;;;;;;;;;6.72;100.00;101152.97;5062487;28;19921;-77
2022/12/25 07:19:26;;;;;;;;;;;;;;;6.71;100.00;101143.38;5064131;28;20011;-77
2022/12/25 07:21:52;;;;;;;;;;;;;;;6.71;100.00;101153.88;5064104;28;20109;-77
2022/12/25 07:24:19;;;;;;;;;;;;;;;6.71;100.00;101159.16;5064178;28;19947;-77
2022/12/25 07:26:44;;;;;;;;;;;;;;;6.71;100.00;101160.00;5064025;28;19932;-77
2022/12/25 07:29:09;;;;;;;;;;;;;;;6.73;100.00;101167.88;5062385;28;20676;-77
2022/12/25 07:31:35;;;;;;;;;;;;;;;6.74;100.00;101169.59;5064062;28;20393;-77
2022/12/25 07:34:00;;;;;;;;;;;;;;;6.74;100.00;101164.31;5063738;28;19935;-77
2022/12/25 07:36:26;;;;;;;;;;;;;;;6.72;100.00;101156.50;5063977;28;20413;-77
2022/12/25 07:38:52;;;;;;;;;;;;;;;6.74;100.00;101165.19;5063734;28;19928;-77
2022/12/25 07:41:17;;;;;;;;;;;;;;;6.73;100.00;101174.00;5063866;28;19935;-77
2022/12/25 07:43:43;;;;;;;;;;;;;;;6.74;100.00;101174.84;5063567;28;20047;-77
2022/12/25 07:46:08;;;;;;;;;;;;;;;6.74;100.00;101180.13;5064026;28;20597;-77
2022/12/25 07:48:34;;;;;;;;;;;;;;;6.73;100.00;101179.28;5045271;28;19974;-77
2022/12/25 07:51:01;;;;;;;;;;;;;;;6.72;100.00;101182.81;5061844;28;19932;-77
2022/12/25 07:53:26;;;;;;;;;;;;;;;6.72;100.00;101174.03;5062125;28;19924;-77
2022/12/25 07:56:15;;;;;;;;;;;;;;;6.71;100.00;101191.56;5064897;28;19975;-77
2022/12/25 07:58:40;;;;;;;;;;;;;;;6.71;100.00;101188.94;5057340;28;20595;-77
2022/12/25 08:01:07;;;;;;;;;;;;;;;6.69;100.00;101192.53;5048506;28;20019;-77
2022/12/25 08:03:33;;;;;;;;;;;;;;;6.69;100.00;101182.00;5062120;28;19989;-76
2022/12/25 08:06:02;;;;;;;;;;;;;;;6.70;100.00;101178.47;5062909;28;20041;-76
2022/12/25 08:08:28;;;;;;;;;;;;;;;6.69;100.00;101180.22;5069649;28;19937;-76
2022/12/25 08:10:53;;;;;;;;;;;;;;;6.70;100.00;101178.47;5067256;28;20053;-76
2022/12/25 08:13:18;;;;;;;;;;;;;;;6.70;100.00;101178.47;5066747;28;19928;-76
2022/12/25 08:15:44;;;;;;;;;;;;;;;6.69;100.00;101190.75;5066766;28;20069;-76
2022/12/25 08:18:09;;;;;;;;;;;;;;;6.69;100.00;101188.13;5064478;28;20481;-77
2022/12/25 08:20:35;;;;;;;;;;;;;;;6.70;100.00;101191.63;5066694;28;20043;-77
2022/12/25 08:23:00;;;;;;;;;;;;;;;6.67;100.00;101184.69;5066936;28;19928;-76
2022/12/25 08:25:26;;;;;;;;;;;;;;;6.68;100.00;101185.53;5065385;28;20578;-76
2022/12/25 08:27:51;;;;;;;;;;;;;;;6.67;100.00;101182.03;5066458;28;20051;-76
2022/12/25 08:30:16;;;;;;;;;;;;;;;6.68;100.00;101175.00;5065109;28;19933;-76
2022/12/25 08:32:42;;;;;;;;;;;;;;;6.65;100.00;101171.53;5066461;28;20423;-76
2022/12/25 08:35:07;;;;;;;;;;;;;;;6.66;100.00;101182.94;5064129;28;19929;-77
2022/12/25 08:37:33;;;;;;;;;;;;;;;6.66;100.00;101194.31;5065585;28;20599;-76
2022/12/25 08:39:58;;;;;;;;;;;;;;;6.65;100.00;101203.13;5066460;28;20474;-77
2022/12/25 08:42:24;;;;;;;;;;;;;;;6.63;100.00;101194.41;5066123;28;19960;-76
2022/12/25 08:44:49;;;;;;;;;;;;;;;6.64;100.00;101196.13;5065291;28;19932;-77
2022/12/25 08:47:14;;;;;;;;;;;;;;;6.63;100.00;101186.50;5066346;28;20147;-76
2022/12/25 08:49:40;;;;;;;;;;;;;;;6.64;100.00;101185.59;5072090;28;19936;-76
2022/12/25 08:52:05;;;;;;;;;;;;;;;6.65;100.00;101192.59;5086336;28;21412;-76
2022/12/25 08:54:32;;;;;;;;;;;;;;;6.65;100.00;101197.84;5085683;28;20043;-77
2022/12/25 08:56:58;;;;;;;;;;;;;;;6.66;100.00;101194.31;5086747;28;20290;-76
2022/12/25 08:59:23;;;;;;;;;;;;;;;6.70;100.00;101196.91;5087009;28;19928;-76
2022/12/25 09:01:48;;;;;;;;;;;;;;;6.71;100.00;101196.84;5067697;28;19935;-77
2022/12/25 09:04:14;;;;;;;;;;;;;;;6.74;100.00;101198.53;5068346;28;19940;-76
2022/12/25 09:06:39;;;;;;;;;;;;;;;6.75;100.00;101192.41;5085040;28;19927;-76
2022/12/25 09:09:05;;;;;;;;;;;;;;;6.78;100.00;101194.94;5067587;28;19923;-76
2022/12/25 09:11:30;;;;;;;;;;;;;;;6.80;100.00;101195.75;5085827;28;19927;-77
2022/12/25 09:13:55;;;;;;;;;;;;;;;6.83;100.00;101200.09;5067642;28;19928;-76
2022/12/25 09:16:21;;;;;;;;;;;;;;;6.84;100.00;101207.97;5085879;28;19928;-77
2022/12/25 09:18:46;;;;;;;;;;;;;;;6.86;100.00;101219.31;5085934;28;19938;-77
2022/12/25 09:21:12;;;;;;;;;;;;;;;6.88;100.00;101214.88;5067414;28;20031;-77
2022/12/25 09:23:38;;;;;;;;;;;;;;;6.90;100.00;101197.28;5085858;28;20365;-77
2022/12/25 09:26:04;;;;;;;;;;;;;;;6.91;100.00;101192.88;5085278;28;19928;-76
2022/12/25 09:28:30;;;;;;;;;;;;;;;6.91;100.00;101193.75;5085997;28;19963;-78
2022/12/25 09:30:55;;;;;;;;;;;;;;;6.92;100.00;101200.72;5085878;28;20073;-78
2022/12/25 09:33:21;;;;;;;;;;;;;;;6.94;100.00;101200.69;5068654;28;20307;-78
2022/12/25 09:35:56;;;;;;;;;;;;;;;6.96;100.00;101206.78;5067283;28;20299;-76
2022/12/25 09:38:21;;;;;;;;;;;;;;;6.97;100.00;101202.41;5085030;28;19989;-76
2022/12/25 09:40:47;;;;;;;;;;;;;;;6.97;100.00;101199.78;5085657;28;20015;-76
2022/12/25 09:43:15;;;;;;;;;;;;;;;6.97;100.00;101195.34;5065730;28;19978;-76
2022/12/25 09:45:41;;;;;;;;;;;;;;;6.98;100.00;101194.44;5050040;28;19959;-76
2022/12/25 09:48:08;;;;;;;;;;;;;;;6.99;100.00;101180.41;5067175;28;20297;-76
2022/12/25 09:50:39;;;;;;;;;;;;;;;6.99;100.00;101176.88;5065567;28;20377;-77
2022/12/25 09:53:06;;;;;;;;;;;;;;;6.99;100.00;101174.25;5084930;28;20381;-76
2022/12/25 09:55:32;;;;;;;;;;;;;;;6.98;100.00;101167.28;5066849;28;19973;-77
2022/12/25 09:57:58;;;;;;;;;;;;;;;6.98;100.00;101164.63;5066112;28;19924;-76
2022/12/25 10:00:24;;;;;;;;;;;;;;;7.00;100.00;101166.34;5085231;28;20387;-77
2022/12/25 10:03:11;;;;;;;;;;;;;;;7.00;100.00;101154.91;5085222;28;19920;-77
2022/12/25 10:05:49;;;;;;;;;;;;;;;6.99;100.00;101147.94;5066237;28;19960;-77
2022/12/25 10:08:20;;;;;;;;;;;;;;;6.99;100.00;101153.19;5065949;28;19930;-77
2022/12/25 10:10:50;;;;;;;;;;;;;;;7.00;100.00;101157.56;5084590;28;19946;-77
2022/12/25 10:13:15;;;;;;;;;;;;;;;7.02;100.00;101158.38;5065822;28;20065;-77
2022/12/25 10:15:41;;;;;;;;;;;;;;;7.02;100.00;101153.97;5084044;28;19932;-77
2022/12/25 10:18:28;;;;;;;;;;;;;;;7.02;100.00;101153.09;5084786;28;19928;-77
2022/12/25 10:20:55;;;;;;;;;;;;;;;7.03;100.00;101141.69;5066946;28;19950;-77
2022/12/25 10:23:37;;;;;;;;;;;;;;;7.06;100.00;101152.13;5066939;28;19946;-77
2022/12/25 10:26:03;;;;;;;;;;;;;;;7.07;100.00;101159.13;5066440;28;20295;-77
2022/12/25 10:28:52;;;;;;;;;;;;;;;7.07;100.00;101170.53;5065697;28;19930;-77
2022/12/25 10:31:19;;;;;;;;;;;;;;;7.10;100.00;101166.09;5074067;28;19935;-76
2022/12/25 10:33:45;;;;;;;;;;;;;;;7.10;100.00;101164.34;5084347;28;19990;-76
2022/12/25 10:36:12;;;;;;;;;;;;;;;7.11;100.00;101168.69;5066519;28;20928;-77
2022/12/25 10:38:38;;;;;;;;;;;;;;;7.11;100.00;101163.41;5066653;28;20018;-76
2022/12/25 10:41:14;;;;;;;;;;;;;;;7.11;100.00;101171.31;5084100;28;19935;-77
2022/12/25 10:43:58;;;;;;;;;;;;;;;7.13;100.00;101164.22;5065732;28;19950;-76
2022/12/25 10:46:24;;;;;;;;;;;;;;;7.14;100.00;101163.31;5053424;28;19932;-76
2022/12/25 10:48:55;;;;;;;;;;;;;;;7.16;100.00;101160.66;5083302;28;20218;-78
2022/12/25 10:51:28;;;;;;;;;;;;;;;7.18;100.00;101158.84;5083941;28;20465;-78
2022/12/25 10:53:53;;;;;;;;;;;;;;;7.19;100.00;101153.53;5084647;28;19973;-78
2022/12/25 10:56:18;;;;;;;;;;;;;;;7.21;100.00;101148.25;5084698;28;19928;-78
2022/12/25 10:58:44;;;;;;;;;;;;;;;7.24;100.00;101134.13;5065128;28;19935;-78
2022/12/25 11:01:09;;;;;;;;;;;;;;;7.25;100.00;101126.16;5066304;28;19924;-78
2022/12/25 11:03:53;;;;;;;;;;;;;;;7.27;100.00;101120.88;5065674;28;19924;-78
2022/12/25 11:06:23;;;;;;;;;;;;;;;7.30;100.00;101115.53;5084645;28;19966;-78
2022/12/25 11:08:50;;;;;;;;;;;;;;;7.31;100.00;101102.31;5065847;28;19928;-78
2022/12/25 11:11:17;;;;;;;;;;;;;;;7.33;100.00;101115.44;5065213;28;20339;-78
2022/12/25 11:13:52;;;;;;;;;;;;;;;7.34;100.00;101101.34;5053499;28;20575;-78
2022/12/25 11:16:32;;;;;;;;;;;;;;;7.37;100.00;101097.78;5065979;28;20386;-78
2022/12/25 11:18:58;;;;;;;;;;;;;;;7.38;100.00;101087.22;5066177;28;19932;-78
2022/12/25 11:21:31;;;;;;;;;;;;;;;7.40;100.00;101071.38;5084562;28;19924;-78
2022/12/25 11:24:00;;;;;;;;;;;;;;;7.42;100.00;101078.28;5083463;28;19923;-78
2022/12/25 11:26:26;;;;;;;;;;;;;;;7.42;100.00;101073.03;5054273;28;19931;-78
2022/12/25 11:28:51;;;;;;;;;;;;;;;7.43;100.00;101074.78;5083591;28;19932;-78
2022/12/25 11:31:18;;;;;;;;;;;;;;;7.45;100.00;101072.94;5065685;28;19935;-78
2022/12/25 11:33:57;;;;;;;;;;;;;;;7.45;100.00;101075.59;5053416;28;19928;-78
2022/12/25 11:36:42;;;;;;;;;;;;;;;7.47;100.00;101070.28;5052074;28;20014;-78
2022/12/25 11:39:21;;;;;;;;;;;;;;;7.46;100.00;101064.13;5064810;28;19927;-78
2022/12/25 11:41:46;;;;;;;;;;;;;;;7.47;100.00;101065.84;5052667;28;20038;-78
2022/12/25 11:44:25;;;;;;;;;;;;;;;7.47;100.00;101068.50;5073820;28;19932;-78
2022/12/25 11:46:50;;;;;;;;;;;;;;;7.47;100.00;101071.13;5069788;28;19992;-78
2022/12/25 11:49:17;;;;;;;;;;;;;;;7.47;100.00;101071.13;5069157;28;20010;-78
2022/12/25 11:51:42;;;;;;;;;;;;;;;7.47;100.00;101065.00;5087268;28;19923;-78
2022/12/25 11:54:23;;;;;;;;;;;;;;;7.47;100.00;101052.69;5069114;28;20522;-78
2022/12/25 11:56:48;;;;;;;;;;;;;;;7.48;100.00;101051.78;5087510;28;20207;-78
2022/12/25 11:59:22;;;;;;;;;;;;;;;7.48;100.00;101033.34;5069487;28;20115;-78
2022/12/25 12:01:51;;;;;;;;;;;;;;;7.48;100.00;101033.34;5057429;28;20010;-78
2022/12/25 12:04:25;;;;;;;;;;;;;;;7.50;100.00;101037.69;5069289;28;19923;-78
2022/12/25 12:06:54;;;;;;;;;;;;;;;7.50;100.00;101041.19;5069351;28;20156;-78
2022/12/25 12:09:28;;;;;;;;;;;;;;;7.51;100.00;101035.00;5087109;28;19935;-77
2022/12/25 12:12:03;;;;;;;;;;;;;;;7.51;100.00;101015.72;5087029;28;20002;-78
2022/12/25 12:14:32;;;;;;;;;;;;;;;7.51;100.00;101011.31;5068724;28;19924;-78
2022/12/25 12:16:58;;;;;;;;;;;;;;;7.50;100.00;101004.31;5087299;28;20027;-78
2022/12/25 12:19:26;;;;;;;;;;;;;;;7.50;100.00;101001.69;5050663;28;19927;-78
2022/12/25 12:21:52;;;;;;;;;;;;;;;7.48;100.00;100999.09;5087194;28;19924;-78
2022/12/25 12:24:18;;;;;;;;;;;;;;;7.48;100.00;101001.72;5068680;28;19935;-78
2022/12/25 12:26:44;;;;;;;;;;;;;;;7.46;100.00;100994.75;5068599;28;19938;-78
2022/12/25 12:29:21;;;;;;;;;;;;;;;7.46;100.00;100995.63;5086663;28;19935;-78
2022/12/25 12:31:47;;;;;;;;;;;;;;;7.45;100.00;100993.91;5069110;28;20025;-78
2022/12/25 12:34:33;;;;;;;;;;;;;;;7.44;100.00;100991.31;5086447;28;19932;-78
2022/12/25 12:37:00;;;;;;;;;;;;;;;7.45;100.00;100993.03;5087202;28;19997;-78
2022/12/25 12:39:27;;;;;;;;;;;;;;;7.44;100.00;100997.47;5086610;28;20332;-78
2022/12/25 12:41:52;;;;;;;;;;;;;;;7.45;100.00;100998.31;5068761;28;19928;-78
2022/12/25 12:44:17;;;;;;;;;;;;;;;7.45;100.00;100991.28;5086247;28;19928;-78
2022/12/25 12:46:50;;;;;;;;;;;;;;;7.46;100.00;100990.38;5086508;28;20626;-78
2022/12/25 12:49:23;;;;;;;;;;;;;;;7.46;100.00;100981.59;5068777;28;19931;-78
2022/12/25 12:51:48;;;;;;;;;;;;;;;7.45;100.00;100982.50;5067692;28;19963;-78
2022/12/25 12:54:16;;;;;;;;;;;;;;;7.45;100.00;100978.13;5068176;28;21594;-78
2022/12/25 12:56:41;;;;;;;;;;;;;;;7.45;100.00;100970.22;5068839;28;19931;-78
2022/12/25 12:59:07;;;;;;;;;;;;;;;7.44;100.00;100972.88;5074375;28;19923;-77
2022/12/25 13:01:41;;;;;;;;;;;;;;;7.43;100.00;100958.00;5085331;28;19927;-78
2022/12/25 13:04:28;;;;;;;;;;;;;;;7.41;100.00;100941.38;5067826;28;20062;-78
2022/12/25 13:07:14;;;;;;;;;;;;;;;7.40;100.00;100948.41;5085230;28;19920;-78
2022/12/25 13:09:55;;;;;;;;;;;;;;;7.40;100.00;100951.03;5045768;28;19928;-78
2022/12/25 13:12:21;;;;;;;;;;;;;;;7.40;100.00;100944.94;5067650;28;20299;-78
2022/12/25 13:14:47;;;;;;;;;;;;;;;7.41;100.00;100944.00;5055080;28;19926;-78
2022/12/25 13:17:13;;;;;;;;;;;;;;;7.40;100.00;100948.41;5068206;28;20063;-78
2022/12/25 13:19:40;;;;;;;;;;;;;;;7.43;100.00;100950.97;5085857;28;19923;-78
2022/12/25 13:22:06;;;;;;;;;;;;;;;7.44;100.00;100957.94;5066670;28;19923;-78
2022/12/25 13:24:32;;;;;;;;;;;;;;;7.45;100.00;100945.63;5084770;28;19971;-78
2022/12/25 13:26:58;;;;;;;;;;;;;;;7.46;100.00;100931.53;5085646;28;21456;-78
2022/12/25 13:29:30;;;;;;;;;;;;;;;7.46;100.00;100921.88;5067701;28;19928;-78
2022/12/25 13:31:59;;;;;;;;;;;;;;;7.47;100.00;100930.66;5085723;28;20383;-78
2022/12/25 13:34:37;;;;;;;;;;;;;;;7.46;100.00;100927.16;5067578;28;19924;-78
2022/12/25 13:37:12;;;;;;;;;;;;;;;7.47;100.00;100920.97;5066969;28;20360;-78
2022/12/25 13:39:38;;;;;;;;;;;;;;;7.46;100.00;100913.97;5084486;28;20402;-76
2022/12/25 13:42:04;;;;;;;;;;;;;;;7.46;100.00;100929.78;5067190;28;20016;-78
2022/12/25 13:44:48;;;;;;;;;;;;;;;7.45;100.00;100928.06;5050485;28;20023;-78
2022/12/25 13:47:23;;;;;;;;;;;;;;;7.44;100.00;100926.34;5086045;28;19997;-77
2022/12/25 13:49:48;;;;;;;;;;;;;;;7.44;100.00;100918.44;5084784;28;19928;-78
2022/12/25 13:52:17;;;;;;;;;;;;;;;7.43;100.00;100905.31;5063112;28;19968;-77
2022/12/25 13:54:56;;;;;;;;;;;;;;;7.44;100.00;100897.38;5063836;28;20159;-77
2022/12/25 13:57:42;;;;;;;;;;;;;;;7.43;100.00;100889.50;5064231;28;20033;-78
2022/12/25 14:00:15;;;;;;;;;;;;;;;7.43;100.00;100882.47;5064617;28;19970;-76
2022/12/25 14:02:41;;;;;;;;;;;;;;;7.41;100.00;100881.63;5065300;28;19931;-79
2022/12/25 14:05:22;;;;;;;;;;;;;;;7.41;100.00;100880.78;5062559;28;19986;-78
2022/12/25 14:07:52;;;;;;;;;;;;;;;7.40;100.00;100882.56;5063594;28;19928;-76
2022/12/25 14:10:17;;;;;;;;;;;;;;;7.41;100.00;100899.22;5050428;28;19924;-77
2022/12/25 14:12:42;;;;;;;;;;;;;;;7.40;100.00;100911.53;5049246;28;20398;-77
2022/12/25 14:15:11;;;;;;;;;;;;;;;7.40;100.00;100914.16;5064771;28;19928;-77
2022/12/25 14:17:37;;;;;;;;;;;;;;;7.39;100.00;100904.53;5063258;28;20038;-76
2022/12/25 14:20:02;;;;;;;;;;;;;;;7.39;100.00;100894.00;5049250;28;19977;-77
2022/12/25 14:22:30;;;;;;;;;;;;;;;7.39;100.00;100898.41;5063095;28;19936;-77